createdAt,value
2018-02-10T00:01:22.583Z,97256
2018-02-10T00:03:50.790Z,97257
2018-02-10T00:06:18.968Z,97255
2018-02-10T00:08:47.185Z,97255
2018-02-10T00:11:15.374Z,97250
2018-02-10T00:13:43.551Z,97247
2018-02-10T00:16:11.765Z,97253
2018-02-10T00:18:40.720Z,97248
2018-02-10T00:21:08.918Z,97244
2018-02-10T00:23:37.872Z,97248
2018-02-10T00:26:06.077Z,97247
2018-02-10T00:28:34.266Z,97244
2018-02-10T00:31:03.236Z,97245
2018-02-10T00:33:31.437Z,97244
2018-02-10T00:36:00.393Z,97248
2018-02-10T00:38:28.581Z,97244
2018-02-10T00:40:56.773Z,97247
2018-02-10T00:43:25.721Z,97247
2018-02-10T00:45:53.950Z,97247
2018-02-10T00:48:22.919Z,97241
2018-02-10T00:50:51.121Z,97244
2018-02-10T00:53:20.079Z,97241
2018-02-10T00:55:48.302Z,97241
2018-02-10T00:58:16.473Z,97233
2018-02-10T01:00:44.665Z,97234
2018-02-10T01:03:12.981Z,97235
2018-02-10T01:05:41.162Z,97237
2018-02-10T01:08:09.371Z,97236
2018-02-10T01:10:37.556Z,97233
2018-02-10T01:13:05.735Z,97233
2018-02-10T01:15:33.941Z,97229
2018-02-10T01:18:02.150Z,97225
2018-02-10T01:20:31.106Z,97229
2018-02-10T01:22:59.305Z,97229
2018-02-10T01:25:27.510Z,97228
2018-02-10T01:27:55.704Z,97229
2018-02-10T01:30:23.889Z,97227
2018-02-10T01:32:52.069Z,97225
2018-02-10T01:35:20.272Z,97224
2018-02-10T01:37:48.518Z,97224
2018-02-10T01:40:16.686Z,97227
2018-02-10T01:42:44.879Z,97229
2018-02-10T01:45:13.839Z,97223
2018-02-10T01:47:42.067Z,97223
2018-02-10T01:50:22.327Z,97225
2018-02-10T01:52:50.589Z,97222
2018-02-10T01:55:18.767Z,97225
2018-02-10T01:57:46.961Z,97221
2018-02-10T02:00:15.179Z,97222
2018-02-10T02:02:43.362Z,97225
2018-02-10T02:05:11.547Z,97218
2018-02-10T02:07:39.747Z,97223
2018-02-10T02:10:07.966Z,97219
2018-02-10T02:12:36.166Z,97217
2018-02-10T02:15:04.470Z,97222
2018-02-10T02:17:32.745Z,97221
2018-02-10T02:20:00.947Z,97229
2018-02-10T02:22:29.911Z,97224
2018-02-10T02:24:58.103Z,97224
2018-02-10T02:27:26.305Z,97221
2018-02-10T02:29:55.257Z,97217
2018-02-10T02:32:23.478Z,97216
2018-02-10T02:34:52.433Z,97222
2018-02-10T02:37:20.765Z,97221
2018-02-10T02:39:48.967Z,97224
2018-02-10T02:42:17.171Z,97227
2018-02-10T02:44:46.173Z,97229
2018-02-10T02:47:14.365Z,97229
2018-02-10T02:49:43.327Z,97226
2018-02-10T02:52:11.513Z,97238
2018-02-10T02:54:39.690Z,97237
2018-02-10T02:57:08.666Z,97231
2018-02-10T02:59:36.868Z,97246
2018-02-10T03:02:05.821Z,97250
2018-02-10T03:04:34.075Z,97248
2018-02-10T03:07:02.262Z,97232
2018-02-10T03:09:30.477Z,97249
2018-02-10T03:11:58.660Z,97248
2018-02-10T03:14:27.629Z,97255
2018-02-10T03:16:55.852Z,97258
2018-02-10T03:19:24.061Z,97256
2018-02-10T03:21:52.254Z,97261
2018-02-10T03:24:20.458Z,97260
2018-02-10T03:26:49.409Z,97262
2018-02-10T03:29:17.619Z,97259
2018-02-10T03:31:46.591Z,97264
2018-02-10T03:34:14.767Z,97271
2018-02-10T03:36:43.001Z,97274
2018-02-10T03:39:11.202Z,97281
2018-02-10T03:41:39.410Z,97281
2018-02-10T03:44:07.642Z,97287
2018-02-10T03:46:35.841Z,97292
2018-02-10T03:49:04.060Z,97287
2018-02-10T03:51:32.258Z,97294
2018-02-10T03:54:00.464Z,97295
2018-02-10T03:56:28.681Z,97300
2018-02-10T03:58:57.642Z,97302
2018-02-10T04:01:25.820Z,97306
2018-02-10T04:03:54.053Z,97311
2018-02-10T04:06:22.274Z,97311
2018-02-10T04:08:50.541Z,97313
2018-02-10T04:11:18.730Z,97317
2018-02-10T04:13:46.922Z,97318
2018-02-10T04:16:15.903Z,97317
2018-02-10T04:18:44.933Z,97320
2018-02-10T04:21:13.119Z,97323
2018-02-10T04:23:41.394Z,97322
2018-02-10T04:26:09.588Z,97319
2018-02-10T04:28:37.793Z,97318
2018-02-10T04:31:06.047Z,97322
2018-02-10T04:33:34.230Z,97316
2018-02-10T04:36:02.426Z,97319
2018-02-10T04:38:31.393Z,97317
2018-02-10T04:40:59.642Z,97322
2018-02-10T04:43:27.835Z,97328
2018-02-10T04:45:56.063Z,97328
2018-02-10T04:48:24.250Z,97332
2018-02-10T04:50:52.479Z,97332
2018-02-10T04:53:20.709Z,97333
2018-02-10T04:55:48.914Z,97336
2018-02-10T04:58:17.166Z,97333
2018-02-10T05:00:45.449Z,97332
2018-02-10T05:03:13.653Z,97336
2018-02-10T05:05:41.863Z,97333
2018-02-10T05:08:10.853Z,97336
2018-02-10T05:10:39.841Z,97334
2018-02-10T05:13:08.841Z,97332
2018-02-10T05:15:37.805Z,97330
2018-02-10T05:18:05.993Z,97334
2018-02-10T05:20:34.948Z,97336
2018-02-10T05:23:03.122Z,97331
2018-02-10T05:25:31.342Z,97338
2018-02-10T05:28:00.358Z,97339
2018-02-10T05:30:28.669Z,97342
2018-02-10T05:32:56.880Z,97341
2018-02-10T05:35:25.074Z,97345
2018-02-10T05:37:54.027Z,97347
2018-02-10T05:40:22.214Z,97354
2018-02-10T05:42:50.458Z,97357
2018-02-10T05:45:18.944Z,97357
2018-02-10T05:47:47.148Z,97360
2018-02-10T05:50:15.346Z,97359
2018-02-10T05:52:43.562Z,97362
2018-02-10T05:55:11.739Z,97360
2018-02-10T05:57:40.045Z,97360
2018-02-10T06:00:08.259Z,97362
2018-02-10T06:02:37.212Z,97357
2018-02-10T06:05:05.405Z,97364
2018-02-10T06:07:33.606Z,97365
2018-02-10T06:10:02.603Z,97367
2018-02-10T06:12:30.816Z,97370
2018-02-10T06:14:59.022Z,97368
2018-02-10T06:17:27.257Z,97360
2018-02-10T06:19:55.486Z,97368
2018-02-10T06:22:24.442Z,97368
2018-02-10T06:24:52.650Z,97375
2018-02-10T06:27:21.659Z,97371
2018-02-10T06:29:50.651Z,97370
2018-02-10T06:32:19.678Z,97370
2018-02-10T06:34:47.929Z,97371
2018-02-10T06:37:16.117Z,97378
2018-02-10T06:39:44.305Z,97379
2018-02-10T06:42:12.490Z,97378
2018-02-10T06:44:40.677Z,97371
2018-02-10T06:47:08.851Z,97374
2018-02-10T06:49:37.045Z,97376
2018-02-10T06:52:05.376Z,97373
2018-02-10T06:54:33.614Z,97374
2018-02-10T06:57:02.586Z,97378
2018-02-10T06:59:30.789Z,97371
2018-02-10T07:01:59.736Z,97381
2018-02-10T07:04:27.933Z,97378
2018-02-10T07:06:56.134Z,97374
2018-02-10T07:09:25.246Z,97369
2018-02-10T07:11:53.492Z,97369
2018-02-10T07:14:22.062Z,97369
2018-02-10T07:16:50.286Z,97371
2018-02-10T07:19:18.481Z,97368
2018-02-10T07:21:46.659Z,97366
2018-02-10T07:24:14.840Z,97368
2018-02-10T07:26:43.015Z,97370
2018-02-10T07:29:11.201Z,97368
2018-02-10T07:31:39.389Z,97368
2018-02-10T07:34:07.595Z,97362
2018-02-10T07:36:35.798Z,97363
2018-02-10T07:39:04.087Z,97361
2018-02-10T07:41:32.285Z,97365
2018-02-10T07:44:00.479Z,97363
2018-02-10T07:46:29.443Z,97365
2018-02-10T07:48:57.643Z,97364
2018-02-10T07:51:25.823Z,97369
2018-02-10T07:53:54.824Z,97367
2018-02-10T07:56:23.806Z,97371
2018-02-10T07:58:52.054Z,97370
2018-02-10T08:01:20.413Z,97368
2018-02-10T08:03:48.589Z,97371
2018-02-10T08:06:16.875Z,97371
2018-02-10T08:08:45.098Z,97380
2018-02-10T08:11:14.079Z,97374
2018-02-10T08:13:42.261Z,97369
2018-02-10T08:16:11.213Z,97370
2018-02-10T08:18:39.390Z,97373
2018-02-10T08:21:07.550Z,97374
2018-02-10T08:23:35.736Z,97371
2018-02-10T08:26:03.929Z,97373
2018-02-10T08:28:32.124Z,97378
2018-02-10T08:31:01.081Z,97379
2018-02-10T08:33:29.281Z,97380
2018-02-10T08:35:57.465Z,97375
2018-02-10T08:38:26.433Z,97374
2018-02-10T08:40:54.648Z,97372
2018-02-10T08:43:23.619Z,97370
2018-02-10T08:45:51.851Z,97374
2018-02-10T08:48:20.047Z,97377
2018-02-10T08:50:48.271Z,97381
2018-02-10T08:53:16.491Z,97383
2018-02-10T08:55:44.669Z,97381
2018-02-10T08:58:12.882Z,97387
2018-02-10T09:00:41.835Z,97378
2018-02-10T09:03:10.028Z,97384
2018-02-10T09:05:38.217Z,97384
2018-02-10T09:08:06.449Z,97383
2018-02-10T09:10:34.651Z,97395
2018-02-10T09:13:02.866Z,97382
2018-02-10T09:15:31.847Z,97385
2018-02-10T09:18:00.028Z,97388
2018-02-10T09:20:28.995Z,97391
2018-02-10T09:22:57.218Z,97387
2018-02-10T09:25:25.404Z,97389
2018-02-10T09:27:53.603Z,97391
2018-02-10T09:30:21.806Z,97393
2018-02-10T09:32:50.758Z,97392
2018-02-10T09:35:18.942Z,97388
2018-02-10T09:37:47.123Z,97389
2018-02-10T09:40:15.312Z,97400
2018-02-10T09:42:43.482Z,97395
2018-02-10T09:45:11.684Z,97394
2018-02-10T09:47:40.663Z,97387
2018-02-10T09:50:08.858Z,97389
2018-02-10T09:52:37.826Z,97392
2018-02-10T09:55:06.023Z,97391
2018-02-10T09:57:35.037Z,97389
2018-02-10T10:00:03.230Z,97389
2018-02-10T10:02:31.410Z,97386
2018-02-10T10:04:59.615Z,97380
2018-02-10T10:07:27.824Z,97381
2018-02-10T10:09:56.781Z,97384
2018-02-10T10:12:24.954Z,97385
2018-02-10T10:14:53.144Z,97385
2018-02-10T10:17:21.317Z,97387
2018-02-10T10:19:49.491Z,97382
2018-02-10T10:22:17.674Z,97387
2018-02-10T10:24:46.630Z,97381
2018-02-10T10:27:14.824Z,97380
2018-02-10T10:29:42.998Z,97379
2018-02-10T10:32:11.208Z,97387
2018-02-10T10:34:40.162Z,97388
2018-02-10T10:37:08.377Z,97382
2018-02-10T10:39:37.326Z,97383
2018-02-10T10:42:05.560Z,97378
2018-02-10T10:44:33.754Z,97381
2018-02-10T10:47:01.957Z,97387
2018-02-10T10:49:30.195Z,97388
2018-02-10T10:51:58.389Z,97379
2018-02-10T10:54:26.633Z,97379
2018-02-10T10:56:54.865Z,97379
2018-02-10T10:59:23.075Z,97376
2018-02-10T11:01:52.044Z,97384
2018-02-10T11:04:20.274Z,97374
2018-02-10T11:06:48.442Z,97370
2018-02-10T11:09:16.610Z,97373
2018-02-10T11:11:44.821Z,97366
2018-02-10T11:14:13.022Z,97368
2018-02-10T11:16:41.220Z,97365
2018-02-10T11:19:09.421Z,97365
2018-02-10T11:21:37.595Z,97367
2018-02-10T11:24:05.782Z,97370
2018-02-10T11:26:34.006Z,97374
2018-02-10T11:29:02.950Z,97374
2018-02-10T11:31:31.955Z,97374
2018-02-10T11:34:00.155Z,97373
2018-02-10T11:36:28.330Z,97380
2018-02-10T11:38:56.515Z,97380
2018-02-10T11:41:25.465Z,97380
2018-02-10T11:43:53.703Z,97380
2018-02-10T11:46:21.870Z,97384
2018-02-10T11:48:50.812Z,97374
2018-02-10T11:51:18.989Z,97380
2018-02-10T11:53:47.209Z,97379
2018-02-10T11:56:16.166Z,97386
2018-02-10T11:58:44.395Z,97382
2018-02-10T12:01:12.585Z,97381
2018-02-10T12:03:40.759Z,97375
2018-02-10T12:06:08.935Z,97380
2018-02-10T12:08:37.130Z,97379
2018-02-10T12:11:05.341Z,97378
2018-02-10T12:13:34.285Z,97376
2018-02-10T12:16:02.470Z,97376
2018-02-10T12:18:30.661Z,97374
2018-02-10T12:20:58.859Z,97370
2018-02-10T12:23:27.834Z,97367
2018-02-10T12:25:56.021Z,97368
2018-02-10T12:28:24.223Z,97369
2018-02-10T12:30:52.510Z,97371
2018-02-10T12:33:20.703Z,97372
2018-02-10T12:35:48.901Z,97372
2018-02-10T12:38:17.142Z,97364
2018-02-10T12:40:45.399Z,97364
2018-02-10T12:43:14.373Z,97365
2018-02-10T12:45:43.443Z,97361
2018-02-10T12:51:05.805Z,97371
2018-02-10T12:53:34.086Z,97367
2018-02-10T12:56:02.294Z,97362
2018-02-10T12:58:31.301Z,97357
2018-02-10T13:00:59.557Z,97362
2018-02-10T13:03:28.542Z,97352
2018-02-10T13:05:57.511Z,97357
2018-02-10T13:08:25.684Z,97351
2018-02-10T13:10:53.910Z,97347
2018-02-10T13:13:22.093Z,97343
2018-02-10T13:15:50.286Z,97345
2018-02-10T13:18:18.469Z,97340
2018-02-10T13:20:46.681Z,97341
2018-02-10T13:23:14.883Z,97343
2018-02-10T13:25:43.094Z,97340
2018-02-10T13:28:11.312Z,97338
2018-02-10T13:30:40.339Z,97336
2018-02-10T13:33:08.573Z,97340
2018-02-10T13:35:36.761Z,97342
2018-02-10T13:38:05.734Z,97344
2018-02-10T13:40:33.943Z,97338
2018-02-10T13:43:02.898Z,97345
2018-02-10T13:45:31.120Z,97334
2018-02-10T13:47:59.301Z,97340
2018-02-10T13:50:27.490Z,97334
2018-02-10T13:52:55.684Z,97333
2018-02-10T13:55:23.881Z,97336
2018-02-10T13:57:52.065Z,97337
2018-02-10T14:00:21.033Z,97337
2018-02-10T14:02:49.202Z,97327
2018-02-10T14:05:18.135Z,97332
2018-02-10T14:07:47.122Z,97327
2018-02-10T14:10:16.080Z,97329
2018-02-10T14:12:44.275Z,97330
2018-02-10T14:15:12.466Z,97332
2018-02-10T14:17:41.512Z,97333
2018-02-10T14:20:09.690Z,97335
2018-02-10T14:22:37.914Z,97335
2018-02-10T14:25:06.853Z,97336
2018-02-10T14:27:35.046Z,97334
2018-02-10T14:30:03.270Z,97334
2018-02-10T14:32:32.219Z,97332
2018-02-10T14:35:00.401Z,97334
2018-02-10T14:37:28.578Z,97334
2018-02-10T14:39:56.754Z,97340
2018-02-10T14:42:24.935Z,97342
2018-02-10T14:44:53.113Z,97342
2018-02-10T14:47:21.347Z,97342
2018-02-10T14:49:49.513Z,97335
2018-02-10T14:52:17.689Z,97344
2018-02-10T14:54:45.866Z,97347
2018-02-10T14:57:14.046Z,97343
2018-02-10T14:59:42.228Z,97341
2018-02-10T15:02:10.411Z,97339
2018-02-10T15:04:38.590Z,97341
2018-02-10T15:07:06.763Z,97342
2018-02-10T15:09:34.926Z,97340
2018-02-10T15:12:03.127Z,97343
2018-02-10T15:14:31.294Z,97337
2018-02-10T15:16:59.498Z,97340
2018-02-10T15:19:28.443Z,97340
2018-02-10T15:21:56.616Z,97340
2018-02-10T15:24:24.799Z,97335
2018-02-10T15:26:52.993Z,97332
2018-02-10T15:29:21.158Z,97331
2018-02-10T15:32:07.227Z,97327
2018-02-10T15:34:47.235Z,97332
2018-02-10T15:37:16.174Z,97324
2018-02-10T15:39:44.361Z,97323
2018-02-10T17:04:10.258Z,97335
2018-02-10T17:06:38.434Z,97341
2018-02-10T17:09:06.606Z,97342
2018-02-10T17:11:34.811Z,97341
2018-02-10T17:14:03.767Z,97339
2018-02-10T17:16:31.952Z,97343
2018-02-10T17:19:00.134Z,97334
2018-02-10T17:21:28.358Z,97334
2018-02-10T17:23:59.493Z,97337
2018-02-10T17:26:27.899Z,97335
2018-02-10T17:28:56.094Z,97334
2018-02-10T17:31:24.278Z,97327
2018-02-10T17:33:52.478Z,97328
2018-02-10T17:36:21.447Z,97329
2018-02-10T17:38:49.629Z,97334
2018-02-10T17:41:17.830Z,97330
2018-02-10T17:43:45.995Z,97332
2018-02-10T17:46:14.935Z,97334
2018-02-10T17:48:43.155Z,97336
2018-02-10T17:51:12.099Z,97342
2018-02-10T17:53:40.280Z,97343
2018-02-10T17:56:08.485Z,97337
2018-02-10T17:58:36.664Z,97336
2018-02-10T18:01:04.835Z,97340
2018-02-10T18:03:33.034Z,97344
2018-02-10T18:06:01.974Z,97346
2018-02-10T18:08:30.178Z,97343
2018-02-10T18:10:58.366Z,97342
2018-02-10T18:13:27.314Z,97343
2018-02-10T18:15:55.484Z,97344
2018-02-10T18:18:23.665Z,97342
2018-02-10T18:20:51.837Z,97343
2018-02-10T18:23:20.029Z,97347
2018-02-10T18:25:48.223Z,97344
2018-02-10T18:28:16.410Z,97350
2018-02-10T18:30:45.363Z,97351
2018-02-10T18:33:13.538Z,97352
2018-02-10T18:35:41.719Z,97356
2018-02-10T18:38:09.975Z,97356
2018-02-10T18:40:38.148Z,97355
2018-02-10T18:43:06.326Z,97360
2018-02-10T18:45:34.516Z,97355
2018-02-10T18:48:02.710Z,97358
2018-02-10T18:50:30.902Z,97358
2018-02-10T18:52:59.850Z,97359
2018-02-10T18:55:28.021Z,97359
2018-02-10T18:57:56.202Z,97361
2018-02-10T19:00:24.378Z,97359
2018-02-10T19:02:52.560Z,97350
2018-02-10T19:05:20.733Z,97359
2018-02-10T19:07:48.898Z,97357
2018-02-10T19:10:17.870Z,97352
2018-02-10T19:12:46.054Z,97348
2018-02-10T19:15:14.235Z,97350
2018-02-10T19:17:42.432Z,97354
2018-02-10T19:20:11.418Z,97358
2018-02-10T19:22:39.614Z,97356
2018-02-10T19:25:07.816Z,97354
2018-02-10T19:27:36.762Z,97361
2018-02-10T19:30:04.927Z,97368
2018-02-10T19:32:33.112Z,97364
2018-02-10T19:35:01.305Z,97364
2018-02-10T19:37:29.501Z,97367
2018-02-10T19:39:58.444Z,97369
2018-02-10T19:42:26.639Z,97362
2018-02-10T19:44:54.839Z,97369
2018-02-10T19:47:23.793Z,97362
2018-02-10T19:49:51.988Z,97361
2018-02-10T19:52:20.177Z,97359
2018-02-10T19:54:49.123Z,97356
2018-02-10T19:57:18.074Z,97359
2018-02-10T19:59:47.016Z,97358
2018-02-10T20:02:15.198Z,97356
2018-02-10T20:04:43.376Z,97355
2018-02-10T20:07:11.564Z,97350
2018-02-10T20:09:39.749Z,97359
2018-02-10T20:12:08.700Z,97358
2018-02-10T20:14:36.899Z,97357
2018-02-10T20:17:05.075Z,97351
2018-02-10T20:19:33.286Z,97354
2018-02-10T20:22:01.463Z,97355
2018-02-10T20:24:29.648Z,97353
2018-02-10T20:26:57.840Z,97357
2018-02-10T20:29:26.019Z,97353
2018-02-10T20:31:54.217Z,97353
2018-02-10T20:34:22.386Z,97354
2018-02-10T20:36:50.554Z,97356
2018-02-10T20:39:19.524Z,97350
2018-02-10T20:41:47.712Z,97347
2018-02-10T20:44:15.886Z,97350
2018-02-10T20:46:44.081Z,97351
2018-02-10T20:49:12.250Z,97351
2018-02-10T20:51:40.424Z,97348
2018-02-10T20:54:08.623Z,97344
2018-02-10T20:56:36.798Z,97348
2018-02-10T20:59:04.975Z,97347
2018-02-10T21:01:33.217Z,97345
2018-02-10T21:04:01.410Z,97343
2018-02-10T21:06:29.586Z,97341
2018-02-10T21:08:57.755Z,97338
2018-02-10T21:11:25.946Z,97339
2018-02-10T21:13:54.126Z,97337
2018-02-10T21:16:23.085Z,97336
2018-02-10T21:18:51.265Z,97328
2018-02-10T21:21:19.435Z,97331
2018-02-10T21:23:47.638Z,97330
2018-02-10T21:26:15.840Z,97331
2018-02-10T21:28:44.770Z,97332
2018-02-10T21:31:12.949Z,97327
2018-02-10T21:33:41.132Z,97326
2018-02-10T21:36:09.334Z,97322
2018-02-10T21:38:37.537Z,97316
2018-02-10T21:41:05.714Z,97311
2018-02-10T21:43:33.884Z,97309
2018-02-10T21:46:02.066Z,97309
2018-02-10T21:48:30.256Z,97297
2018-02-10T21:50:58.458Z,97300
2018-02-10T21:53:26.622Z,97300
2018-02-10T21:55:54.804Z,97293
2018-02-10T21:58:23.015Z,97295
2018-02-10T22:00:51.947Z,97287
2018-02-10T22:03:20.130Z,97280
2018-02-10T22:05:48.303Z,97275
2018-02-10T22:08:16.468Z,97275
2018-02-10T22:10:44.654Z,97272
2018-02-10T22:13:12.817Z,97276
2018-02-10T22:15:41.277Z,97272
2018-02-10T22:18:09.456Z,97265
2018-02-10T22:20:37.630Z,97257
2018-02-10T22:23:05.806Z,97256
2018-02-10T22:25:33.988Z,97255
2018-02-10T22:28:02.149Z,97259
2018-02-10T22:30:30.328Z,97262
2018-02-10T22:32:58.500Z,97262
2018-02-10T22:35:26.679Z,97261
2018-02-10T22:37:54.841Z,97260
2018-02-10T22:40:23.811Z,97260
2018-02-10T22:42:52.015Z,97257
2018-02-10T22:45:20.212Z,97252
2018-02-10T22:47:48.394Z,97247
2018-02-10T22:50:16.578Z,97251
2018-02-10T22:52:44.766Z,97245
2018-02-10T22:55:12.935Z,97248
2018-02-10T22:57:41.142Z,97246
2018-02-10T23:00:10.090Z,97243
2018-02-10T23:02:38.269Z,97242
2018-02-10T23:05:06.459Z,97237
2018-02-10T23:07:34.630Z,97232
2018-02-10T23:10:02.818Z,97232
2018-02-10T23:12:30.995Z,97227
2018-02-10T23:14:59.174Z,97224
2018-02-10T23:17:27.358Z,97228
2018-02-10T23:19:56.294Z,97225
2018-02-10T23:22:24.477Z,97211
2018-02-10T23:24:52.661Z,97212
2018-02-10T23:27:20.830Z,97221
2018-02-10T23:29:49.035Z,97217
2018-02-10T23:32:17.227Z,97215
2018-02-10T23:34:46.189Z,97222
2018-02-10T23:37:14.366Z,97213
2018-02-10T23:39:42.558Z,97214
2018-02-10T23:42:10.738Z,97215
2018-02-10T23:44:38.908Z,97213
2018-02-10T23:47:07.086Z,97212
2018-02-10T23:49:36.026Z,97202
2018-02-10T23:52:04.202Z,97209
2018-02-10T23:54:32.382Z,97204
2018-02-10T23:57:00.567Z,97209
2018-02-10T23:59:28.765Z,97209
